Time;durP1;ratioP1;P1;durP2;ratioP2;P2;SDS_P1;SDS_P2;PMS_P1;PMS_P2;Temp;Humidity;BMP_temperature;BMP_pressure;BME280_temperature;BME280_humidity;BME280_pressure;Samples;Min_cycle;Max_cycle;Signal;HPM_P1;HPM_P2
2022/12/03 00:01:09;;;;;;;34.50;14.50;;;;;;;-0.74;91.57;99428.86;214198;1312;23236;-73
2022/12/03 00:06:11;;;;;;;34.00;14.30;;;;;;;-0.69;91.93;99427.71;214126;1312;26601;-71
2022/12/03 00:11:13;;;;;;;33.50;13.70;;;;;;;-0.67;91.74;99430.95;214218;1312;25451;-73
2022/12/03 00:16:15;;;;;;;28.70;12.40;;;;;;;-0.63;91.96;99421.69;214037;1312;22495;-73
2022/12/03 00:21:17;;;;;;;35.20;14.40;;;;;;;-0.62;91.61;99428.89;213999;1310;22611;-72
2022/12/03 00:26:19;;;;;;;29.50;13.40;;;;;;;-0.63;91.69;99433.63;213945;1310;22504;-72
2022/12/03 00:31:23;;;;;;;25.40;11.90;;;;;;;-0.63;91.76;99432.41;214039;1310;25320;-72
2022/12/03 00:36:25;;;;;;;33.50;14.20;;;;;;;-0.63;91.65;99425.38;213922;1312;22528;-72
2022/12/03 00:41:27;;;;;;;35.50;13.40;;;;;;;-0.64;91.48;99418.67;213975;1312;25007;-71
2022/12/03 00:46:29;;;;;;;33.30;13.50;;;;;;;-0.64;91.66;99420.38;213993;1297;25365;-71
2022/12/03 00:51:31;;;;;;;29.00;14.50;;;;;;;-0.63;92.04;99423.02;214221;1310;22512;-72
2022/12/03 00:56:33;;;;;;;35.70;14.50;;;;;;;-0.63;91.73;99422.21;214169;1313;22479;-72
2022/12/03 01:01:35;;;;;;;37.00;15.70;;;;;;;-0.62;92.00;99418.53;214064;1311;26349;-72
2022/12/03 01:06:37;;;;;;;29.10;14.50;;;;;;;-0.60;91.85;99406.88;214125;1313;22458;-72
2022/12/03 01:11:40;;;;;;;37.10;15.10;;;;;;;-0.62;91.95;99411.80;214164;1309;23253;-72
2022/12/03 01:16:42;;;;;;;33.30;15.10;;;;;;;-0.63;92.02;99419.73;214224;1310;24342;-72
2022/12/03 01:21:47;;;;;;;27.70;11.90;;;;;;;-0.62;91.71;99412.54;214086;1305;22493;-72
2022/12/03 01:26:49;;;;;;;31.20;12.60;;;;;;;-0.63;91.88;99401.65;214247;1311;22573;-73
2022/12/03 01:37:12;;;;;;;32.20;13.30;;;;;;;-0.61;91.73;99399.88;214198;1310;22505;-72
2022/12/03 01:42:17;;;;;;;29.60;13.30;;;;;;;-0.60;91.85;99401.81;214140;1312;22520;-72
2022/12/03 01:47:25;;;;;;;37.30;15.70;;;;;;;-0.61;91.80;99410.12;214081;1313;23866;-72
2022/12/03 01:52:31;;;;;;;37.60;15.00;;;;;;;-0.61;91.71;99414.56;214287;1311;22481;-71
2022/12/03 01:57:36;;;;;;;36.10;15.40;;;;;;;-0.61;91.83;99419.26;214179;1313;23863;-71
2022/12/03 02:02:38;;;;;;;33.20;13.60;;;;;;;-0.57;92.25;99417.83;214186;1311;22948;-71
2022/12/03 02:07:41;;;;;;;30.50;13.20;;;;;;;-0.54;92.05;99419.27;214270;1313;22481;-73
2022/12/03 02:12:49;;;;;;;38.50;15.30;;;;;;;-0.55;92.02;99414.89;214210;1313;24353;-72
2022/12/03 02:17:52;;;;;;;33.20;14.80;;;;;;;-0.53;92.14;99403.94;214249;1304;22533;-72
2022/12/03 02:23:10;;;;;;;29.50;13.30;;;;;;;-0.53;92.08;99412.32;214095;1312;24288;-72
2022/12/03 02:28:12;;;;;;;31.30;13.00;;;;;;;-0.51;92.19;99399.89;214157;1313;22500;-72
2022/12/03 02:33:13;;;;;;;33.30;15.90;;;;;;;-0.50;92.08;99400.98;214023;1311;22895;-72
2022/12/03 02:38:19;;;;;;;34.00;14.70;;;;;;;-0.49;92.11;99396.13;213990;1310;22691;-72
2022/12/03 02:43:22;;;;;;;34.10;14.50;;;;;;;-0.47;92.12;99392.40;214119;1311;22520;-72
2022/12/03 02:48:28;;;;;;;36.00;15.30;;;;;;;-0.45;92.15;99395.11;214087;1311;22548;-71
2022/12/03 02:53:37;;;;;;;35.10;15.90;;;;;;;-0.44;92.25;99385.27;214013;1310;24335;-71
2022/12/03 02:58:40;;;;;;;28.30;13.80;;;;;;;-0.44;92.13;99395.52;214140;1310;22495;-71
2022/12/03 03:03:44;;;;;;;29.80;12.20;;;;;;;-0.43;92.34;99395.92;214150;1310;25367;-72
2022/12/03 03:08:47;;;;;;;36.70;14.80;;;;;;;-0.43;92.33;99394.27;214302;1310;24597;-72
2022/12/03 03:13:49;;;;;;;33.70;13.70;;;;;;;-0.42;92.07;99400.88;214114;1310;24110;-71
2022/12/03 03:18:51;;;;;;;26.50;13.70;;;;;;;-0.40;92.02;99398.48;213900;1310;24244;-71
2022/12/03 03:23:53;;;;;;;32.40;14.70;;;;;;;-0.39;92.11;99398.04;214043;1310;24421;-73
2022/12/03 03:28:56;;;;;;;37.00;14.60;;;;;;;-0.40;92.14;99398.81;214168;1310;22498;-72
2022/12/03 03:33:58;;;;;;;30.20;14.50;;;;;;;-0.39;92.00;99396.41;214001;1310;23832;-71
2022/12/03 03:39:00;;;;;;;33.50;14.40;;;;;;;-0.39;92.08;99403.46;214069;1310;22473;-72
2022/12/03 03:44:06;;;;;;;35.80;15.60;;;;;;;-0.38;92.14;99409.87;214125;1310;25386;-72
2022/12/03 03:49:09;;;;;;;34.10;14.90;;;;;;;-0.39;92.23;99407.32;214200;1310;22513;-72
2022/12/03 03:54:11;;;;;;;35.20;14.80;;;;;;;-0.37;92.38;99403.14;214060;1310;24274;-72
2022/12/03 03:59:14;;;;;;;30.70;14.60;;;;;;;-0.34;92.42;99402.42;214176;1310;22489;-73
2022/12/03 04:04:19;;;;;;;34.10;13.10;;;;;;;-0.33;92.33;99400.35;214080;1310;22469;-72
2022/12/03 04:09:21;;;;;;;33.80;14.00;;;;;;;-0.31;92.31;99406.14;214227;1310;24313;-72
2022/12/03 04:14:23;;;;;;;33.90;14.80;;;;;;;-0.30;92.30;99405.58;214116;1310;23278;-72
2022/12/03 04:19:25;;;;;;;33.50;15.30;;;;;;;-0.35;92.18;99394.67;214010;1304;22598;-70
2022/12/03 04:24:27;;;;;;;32.80;15.20;;;;;;;-0.33;92.12;99398.13;214130;1310;24329;-72
2022/12/03 04:29:29;;;;;;;29.20;13.20;;;;;;;-0.34;92.30;99394.33;214077;1310;22574;-72
2022/12/03 04:39:53;;;;;;;30.40;13.80;;;;;;;-0.34;92.42;99390.55;214252;1310;22728;-72
2022/12/03 04:44:57;;;;;;;35.10;15.90;;;;;;;-0.35;92.59;99384.80;214207;1310;25261;-71
2022/12/03 04:49:59;;;;;;;33.70;14.90;;;;;;;-0.35;92.69;99385.36;214250;1310;23155;-72
2022/12/03 04:55:00;;;;;;;32.20;14.00;;;;;;;-0.32;92.54;99380.88;214143;1310;23778;-71
2022/12/03 05:00:04;;;;;;;29.50;12.60;;;;;;;-0.30;92.74;99378.08;214013;1310;27636;-72
2022/12/03 05:05:06;;;;;;;29.90;13.60;;;;;;;-0.26;92.65;99374.06;214249;1303;23775;-72
2022/12/03 05:10:09;;;;;;;30.40;13.60;;;;;;;-0.27;92.52;99377.79;214085;1310;22490;-72
2022/12/03 05:15:11;;;;;;;36.30;15.20;;;;;;;-0.25;92.80;99375.43;214015;1310;23070;-72
2022/12/03 05:25:34;;;;;;;28.20;13.20;;;;;;;-0.27;92.48;99380.33;214136;1310;24952;-71
2022/12/03 05:30:35;;;;;;;30.90;13.50;;;;;;;-0.29;92.71;99379.30;214103;1304;22485;-72
2022/12/03 05:35:38;;;;;;;36.00;15.20;;;;;;;-0.25;92.75;99377.79;214160;1310;23407;-72
2022/12/03 05:40:40;;;;;;;35.00;15.30;;;;;;;-0.23;92.87;99375.23;214085;1304;22509;-71
2022/12/03 05:45:43;;;;;;;26.00;13.30;;;;;;;-0.21;92.96;99379.52;214228;1310;25292;-72
2022/12/03 05:50:45;;;;;;;30.50;13.90;;;;;;;-0.21;92.84;99377.51;214062;1310;22489;-72
2022/12/03 05:55:47;;;;;;;32.70;14.40;;;;;;;-0.19;92.78;99377.48;214132;1310;24130;-72
2022/12/03 06:00:49;;;;;;;31.60;14.70;;;;;;;-0.17;92.86;99376.93;214036;1307;22547;-71
2022/12/03 06:05:51;;;;;;;45.00;18.10;;;;;;;-0.13;93.07;99377.03;214137;1310;22471;-73
2022/12/03 06:10:53;;;;;;;42.40;18.80;;;;;;;-0.12;92.96;99378.89;214251;1310;25341;-72
2022/12/03 06:15:55;;;;;;;37.20;17.20;;;;;;;-0.12;92.87;99385.48;214219;1310;24275;-72
2022/12/03 06:20:56;;;;;;;43.30;18.90;;;;;;;-0.11;92.80;99382.48;214127;1308;22675;-71
2022/12/03 06:25:58;;;;;;;39.70;18.00;;;;;;;-0.09;92.89;99390.19;214043;1310;25352;-72
2022/12/03 06:31:00;;;;;;;40.90;18.10;;;;;;;-0.07;92.93;99393.51;214126;1310;22559;-71
2022/12/03 06:36:02;;;;;;;34.90;16.80;;;;;;;-0.06;92.97;99403.64;213948;1310;23783;-72
2022/12/03 06:41:04;;;;;;;31.80;16.20;;;;;;;-0.01;93.00;99408.41;214052;1310;22578;-72
2022/12/03 06:46:06;;;;;;;35.70;17.00;;;;;;;0.01;92.91;99411.10;214249;1310;22519;-72
2022/12/03 06:51:08;;;;;;;39.60;18.20;;;;;;;0.02;93.02;99412.20;214251;1310;23293;-71
2022/12/03 06:56:10;;;;;;;37.60;18.60;;;;;;;0.02;92.92;99413.61;214096;1310;22679;-72
2022/12/03 07:01:12;;;;;;;40.50;19.50;;;;;;;-0.00;92.96;99408.02;214103;1310;22950;-72
2022/12/03 07:06:14;;;;;;;43.50;18.40;;;;;;;0.02;92.72;99403.03;214200;1310;22518;-71
2022/12/03 07:11:31;;;;;;;42.40;17.70;;;;;;;-0.01;93.00;99404.82;214074;1310;22657;-72
2022/12/03 07:16:34;;;;;;;41.60;18.70;;;;;;;-0.02;92.85;99410.48;214102;1310;22577;-72
2022/12/03 07:21:37;;;;;;;44.10;19.70;;;;;;;0.00;92.75;99409.77;214028;1310;22598;-72
2022/12/03 07:26:39;;;;;;;43.20;18.10;;;;;;;0.03;92.86;99411.30;214085;1310;22496;-72
2022/12/03 07:31:40;;;;;;;49.80;19.80;;;;;;;0.06;93.10;99415.63;214165;1310;24391;-72
2022/12/03 07:36:42;;;;;;;48.80;18.40;;;;;;;0.13;93.03;99412.78;213979;1310;25463;-72
2022/12/03 07:41:44;;;;;;;52.20;19.90;;;;;;;0.17;92.99;99421.70;214256;1310;22533;-71
2022/12/03 07:46:46;;;;;;;50.10;22.00;;;;;;;0.20;92.89;99417.96;213930;1288;22486;-72
2022/12/03 07:51:53;;;;;;;43.20;18.60;;;;;;;0.23;92.76;99411.27;214241;1291;22527;-72
2022/12/03 07:56:55;;;;;;;54.40;21.70;;;;;;;0.28;92.98;99411.27;214463;1310;25347;-71
2022/12/03 08:02:02;;;;;;;65.30;24.30;;;;;;;0.32;92.58;99408.17;214363;1285;22494;-72
2022/12/03 08:07:05;;;;;;;54.60;20.80;;;;;;;0.32;92.68;99403.08;214670;1286;24409;-72
2022/12/03 08:12:15;;;;;;;54.10;20.40;;;;;;;0.34;92.76;99393.66;214650;1284;22527;-74
2022/12/03 08:17:18;;;;;;;45.30;19.50;;;;;;;0.39;92.79;99394.05;214582;1281;22462;-73
2022/12/03 08:22:21;;;;;;;56.20;20.80;;;;;;;0.41;92.55;99396.81;214636;1310;25377;-75
2022/12/03 08:27:23;;;;;;;50.60;19.40;;;;;;;0.44;92.85;99399.24;214401;1296;24246;-76
2022/12/03 08:32:25;;;;;;;55.00;22.00;;;;;;;0.50;92.66;99397.69;214422;1281;24436;-75
2022/12/03 08:37:28;;;;;;;50.10;20.00;;;;;;;0.51;92.47;99403.80;214467;1305;22482;-75
2022/12/03 08:42:41;;;;;;;60.40;23.80;;;;;;;0.53;92.42;99409.64;214592;1288;23329;-75
2022/12/03 08:47:43;;;;;;;58.20;22.20;;;;;;;0.58;92.58;99403.79;214513;1290;23898;-74
2022/12/03 08:52:45;;;;;;;57.50;22.50;;;;;;;0.66;92.42;99399.86;214606;1295;22969;-74
2022/12/03 08:57:47;;;;;;;60.20;23.60;;;;;;;0.76;92.59;99409.61;214666;1310;22515;-74
2022/12/03 09:02:58;;;;;;;58.60;20.30;;;;;;;0.80;92.19;99415.12;214602;1284;22544;-76
2022/12/03 09:08:00;;;;;;;60.00;22.60;;;;;;;0.80;92.23;99420.35;214621;1294;22525;-76
2022/12/03 09:13:02;;;;;;;54.40;20.80;;;;;;;0.72;91.70;99416.85;214827;1291;22542;-74
2022/12/03 09:18:06;;;;;;;45.00;17.30;;;;;;;0.62;91.92;99416.59;214634;1278;22574;-75
2022/12/03 09:23:08;;;;;;;51.80;21.00;;;;;;;0.55;91.80;99411.14;214677;1289;22470;-73
2022/12/03 09:28:10;;;;;;;54.20;19.30;;;;;;;0.45;91.82;99412.46;214768;1286;22643;-74
2022/12/03 09:33:12;;;;;;;48.50;19.10;;;;;;;0.35;92.02;99411.17;214803;1310;25348;-74
2022/12/03 09:38:14;;;;;;;47.90;19.80;;;;;;;0.28;92.19;99413.13;214498;1287;25075;-73
2022/12/03 09:43:17;;;;;;;54.30;20.70;;;;;;;0.21;92.34;99406.98;214492;1287;22566;-74
2022/12/03 09:48:20;;;;;;;46.70;18.40;;;;;;;0.18;92.36;99409.38;214500;1295;23197;-74
2022/12/03 09:53:25;;;;;;;49.20;18.00;;;;;;;0.23;92.65;99400.17;214569;1302;22519;-73
2022/12/03 09:58:28;;;;;;;65.30;23.90;;;;;;;0.34;92.79;99401.70;214630;1281;22482;-72
2022/12/03 10:03:39;;;;;;;44.40;17.70;;;;;;;0.41;92.82;99389.88;214657;1284;22552;-71
2022/12/03 10:08:42;;;;;;;57.50;21.60;;;;;;;0.39;92.40;99385.79;214673;1285;24718;-73
2022/12/03 10:13:45;;;;;;;55.20;21.10;;;;;;;0.34;92.38;99381.45;214571;1286;22483;-73
2022/12/03 10:18:53;;;;;;;50.10;19.30;;;;;;;0.33;92.58;99379.76;214645;1294;22532;-72
2022/12/03 10:24:24;;;;;;;47.70;19.60;;;;;;;0.39;92.95;99377.19;215250;1288;24244;-76
2022/12/03 10:29:28;;;;;;;45.10;18.80;;;;;;;0.40;92.62;99382.45;214649;1303;22669;-75
2022/12/03 10:34:37;;;;;;;49.00;19.00;;;;;;;0.41;92.69;99388.50;214847;1279;23896;-75
2022/12/03 10:39:53;;;;;;;52.10;20.30;;;;;;;0.45;92.81;99386.23;214838;1288;104425;-73
2022/12/03 10:45:35;;;;;;;60.00;22.30;;;;;;;0.46;92.79;99377.21;214799;1298;24131;-74
2022/12/03 10:50:49;;;;;;;54.20;21.00;;;;;;;0.43;92.74;99369.70;212911;1287;22534;-76
2022/12/03 10:55:57;;;;;;;60.00;21.10;;;;;;;0.44;92.86;99366.99;214660;1290;22480;-74
2022/12/03 11:01:14;;;;;;;55.40;20.30;;;;;;;0.48;93.02;99368.52;214598;1304;22493;-74
2022/12/03 11:06:19;;;;;;;61.10;22.50;;;;;;;0.54;92.87;99370.46;214811;1287;25466;-74
2022/12/03 11:11:26;;;;;;;58.30;21.70;;;;;;;0.57;93.01;99372.27;214722;1288;23741;-76
2022/12/03 11:16:40;;;;;;;80.80;26.90;;;;;;;0.61;92.99;99356.52;214665;1283;23667;-73
2022/12/03 11:22:04;;;;;;;59.50;21.80;;;;;;;0.66;93.27;99345.46;214825;1278;24310;-73
2022/12/03 11:27:09;;;;;;;58.30;22.00;;;;;;;0.75;93.34;99347.38;214848;1288;22611;-74
2022/12/03 11:32:38;;;;;;;55.90;22.60;;;;;;;0.85;93.24;99344.45;214920;1285;22574;-74
2022/12/03 11:37:40;;;;;;;63.60;22.80;;;;;;;1.02;93.49;99347.58;214709;1287;22499;-74
2022/12/03 11:42:43;;;;;;;56.80;22.60;;;;;;;1.15;93.15;99339.37;214725;1295;22568;-73
2022/12/03 11:48:12;;;;;;;56.90;21.50;;;;;;;1.31;93.23;99333.98;215203;1310;22507;-74
2022/12/03 11:53:23;;;;;;;58.20;21.90;;;;;;;1.39;92.85;99334.27;214738;1288;23606;-74
2022/12/03 11:58:28;;;;;;;60.00;23.00;;;;;;;1.38;92.38;99333.30;214559;1287;23365;-74
2022/12/03 12:03:33;;;;;;;56.30;22.60;;;;;;;1.33;92.22;99329.27;214419;1288;22602;-73
2022/12/03 12:08:40;;;;;;;55.70;22.00;;;;;;;1.27;92.19;99334.98;214242;1310;25537;-73
2022/12/03 12:13:42;;;;;;;52.60;22.90;;;;;;;1.27;92.42;99338.32;214128;1310;22481;-74
2022/12/03 12:18:50;;;;;;;57.70;23.20;;;;;;;1.22;92.39;99338.63;214277;1310;22531;-74
2022/12/03 12:23:56;;;;;;;73.00;25.30;;;;;;;1.17;92.48;99336.88;214111;1310;22545;-74
2022/12/03 12:28:57;;;;;;;70.90;26.10;;;;;;;1.18;92.64;99330.34;214220;1310;22471;-73
2022/12/03 12:34:00;;;;;;;65.20;24.40;;;;;;;1.18;92.72;99327.90;214031;1310;24327;-73
2022/12/03 12:39:09;;;;;;;53.40;23.30;;;;;;;1.18;92.70;99331.44;214136;1310;25519;-73
2022/12/03 12:44:14;;;;;;;69.20;25.70;;;;;;;1.16;92.78;99325.60;214225;1310;25431;-74
2022/12/03 12:49:20;;;;;;;60.20;24.20;;;;;;;1.17;92.81;99313.86;214209;1310;25195;-73
2022/12/03 12:54:22;;;;;;;61.80;23.60;;;;;;;1.15;92.56;99311.48;214109;1310;22511;-73
2022/12/03 12:59:24;;;;;;;61.70;22.70;;;;;;;1.10;92.65;99300.64;213965;1310;22472;-73
2022/12/03 13:04:29;;;;;;;64.40;25.80;;;;;;;1.08;92.87;99296.46;214049;1310;25382;-73
2022/12/03 13:09:31;;;;;;;63.10;23.30;;;;;;;1.06;92.83;99300.57;214163;1310;25340;-73
2022/12/03 13:14:36;;;;;;;62.90;27.60;;;;;;;1.08;93.11;99297.44;213953;1310;25379;-74
2022/12/03 13:19:39;;;;;;;62.30;25.90;;;;;;;1.08;93.07;99294.15;214186;1310;22524;-74
2022/12/03 13:25:31;;;;;;;68.50;28.50;;;;;;;1.00;92.94;99300.29;214034;1310;22486;-73
2022/12/03 13:30:53;;;;;;;70.50;28.70;;;;;;;0.92;92.89;99290.98;214126;1310;24100;-73
2022/12/03 13:35:55;;;;;;;63.90;25.90;;;;;;;0.82;93.11;99282.95;214069;1307;22617;-73
2022/12/03 13:41:00;;;;;;;59.10;22.50;;;;;;;0.69;92.94;99284.76;213941;1310;25295;-73
2022/12/03 13:46:02;;;;;;;66.20;27.90;;;;;;;0.59;93.19;99287.27;214102;1303;22525;-73
2022/12/03 13:51:25;;;;;;;58.30;23.90;;;;;;;0.56;93.45;99295.48;214015;1310;22484;-73
2022/12/03 13:56:29;;;;;;;67.50;26.90;;;;;;;0.59;93.73;99301.52;214047;1310;22611;-73
2022/12/03 14:01:31;;;;;;;72.00;26.50;;;;;;;0.58;93.50;99298.36;214106;1310;22543;-73
2022/12/03 14:06:33;;;;;;;65.10;25.70;;;;;;;0.56;93.54;99290.59;214004;1310;22604;-73
2022/12/03 14:16:56;;;;;;;70.50;25.20;;;;;;;0.47;93.56;99290.00;214057;1305;22925;-73
2022/12/03 14:22:01;;;;;;;56.90;23.50;;;;;;;0.44;93.67;99290.42;214179;1310;25421;-74
2022/12/03 14:27:03;;;;;;;66.70;24.90;;;;;;;0.37;93.54;99286.23;214029;1310;24586;-71
2022/12/03 14:32:05;;;;;;;61.70;22.40;;;;;;;0.26;93.54;99291.44;213984;1310;24366;-73
2022/12/03 14:37:07;;;;;;;56.60;21.10;;;;;;;0.16;93.69;99292.31;214011;1311;22472;-74
2022/12/03 14:42:12;;;;;;;61.50;22.80;;;;;;;0.08;93.85;99286.98;214006;1310;22515;-73
2022/12/03 14:47:17;;;;;;;66.80;25.50;;;;;;;0.00;94.17;99291.70;214016;1310;24739;-73
2022/12/03 14:52:19;;;;;;;61.40;23.00;;;;;;;-0.03;94.39;99294.58;214046;1310;24468;-73
2022/12/03 14:57:21;;;;;;;62.20;23.30;;;;;;;-0.03;94.75;99302.36;213963;1310;22474;-73
2022/12/03 15:02:23;;;;;;;60.10;23.40;;;;;;;-0.02;95.04;99303.42;214150;1310;23701;-73
2022/12/03 15:07:25;;;;;;;69.00;24.40;;;;;;;0.05;95.22;99302.33;214035;1310;22576;-74
2022/12/03 15:12:27;;;;;;;69.90;26.70;;;;;;;0.10;95.17;99299.54;214021;1310;22522;-74
2022/12/03 15:17:28;;;;;;;80.90;26.60;;;;;;;0.10;95.22;99298.00;214108;1310;22513;-75
2022/12/03 15:22:33;;;;;;;71.90;24.50;;;;;;;0.07;95.00;99300.23;214246;1310;22549;-73
2022/12/03 15:27:34;;;;;;;62.10;22.10;;;;;;;0.02;95.12;99304.79;214298;1310;22513;-75
2022/12/03 15:32:36;;;;;;;71.40;24.20;;;;;;;0.02;95.57;99303.04;214325;1287;22714;-73
2022/12/03 15:37:39;;;;;;;57.80;23.50;;;;;;;0.09;95.70;99307.02;214440;1285;22501;-74
2022/12/03 15:42:42;;;;;;;57.20;22.50;;;;;;;0.12;95.46;99307.36;214533;1281;25593;-73
2022/12/03 15:47:44;;;;;;;60.40;21.10;;;;;;;0.11;95.33;99304.31;214458;1281;22493;-73
2022/12/03 15:52:46;;;;;;;58.90;21.30;;;;;;;0.09;95.60;99301.81;214204;1281;22861;-73
2022/12/03 15:57:49;;;;;;;76.40;26.30;;;;;;;0.09;95.57;99302.95;214373;1281;22697;-73
2022/12/03 16:02:51;;;;;;;75.60;25.70;;;;;;;0.09;95.69;99299.02;214345;1288;23218;-74
2022/12/03 16:07:54;;;;;;;65.20;24.30;;;;;;;0.06;95.44;99296.97;214399;1277;25487;-74
2022/12/03 16:12:55;;;;;;;67.60;23.20;;;;;;;0.03;95.59;99299.76;214350;1280;22585;-76
2022/12/03 16:17:57;;;;;;;72.60;26.10;;;;;;;0.04;95.79;99305.83;214339;1281;22424;-74
2022/12/03 16:22:59;;;;;;;68.20;23.80;;;;;;;0.03;96.05;99304.06;214071;1284;22633;-74
2022/12/03 16:28:01;;;;;;;68.80;25.20;;;;;;;0.03;96.10;99303.33;214230;1288;22612;-73
2022/12/03 16:33:03;;;;;;;79.30;26.90;;;;;;;0.05;96.28;99302.71;214340;1281;22482;-74
2022/12/03 16:38:05;;;;;;;75.10;26.70;;;;;;;0.05;96.18;99304.21;214358;1281;22476;-73
2022/12/03 16:43:09;;;;;;;79.80;28.00;;;;;;;0.05;96.21;99298.11;214155;1289;23094;-74
2022/12/03 16:48:11;;;;;;;70.50;26.00;;;;;;;0.05;96.42;99298.26;213961;1281;22618;-74
2022/12/03 16:53:13;;;;;;;71.70;26.70;;;;;;;0.10;96.49;99299.73;214079;1285;25474;-73
2022/12/03 16:58:20;;;;;;;89.90;29.10;;;;;;;0.12;96.60;99302.09;214142;1281;22628;-73
2022/12/03 17:03:22;;;;;;;72.90;25.30;;;;;;;0.18;96.78;99295.02;214015;1284;25440;-75
2022/12/03 17:08:27;;;;;;;77.90;29.20;;;;;;;0.21;96.74;99294.64;214138;1284;23789;-74
2022/12/03 17:13:29;;;;;;;68.60;27.10;;;;;;;0.21;96.42;99289.38;213993;1284;24247;-74
2022/12/03 17:18:30;;;;;;;78.60;26.90;;;;;;;0.22;96.65;99284.06;214306;1285;22468;-74
2022/12/03 17:23:32;;;;;;;60.50;23.80;;;;;;;0.21;96.52;99285.04;214475;1284;23237;-74
2022/12/03 17:28:34;;;;;;;58.70;22.00;;;;;;;0.21;96.74;99280.01;214392;1284;22453;-74
2022/12/03 17:33:36;;;;;;;64.00;23.20;;;;;;;0.21;96.75;99278.23;214190;1284;22907;-75
2022/12/03 17:38:38;;;;;;;63.60;25.20;;;;;;;0.24;96.67;99281.21;214259;1281;22488;-74
2022/12/03 17:43:41;;;;;;;59.30;21.50;;;;;;;0.24;96.57;99287.13;214220;1287;22531;-74
2022/12/03 17:48:43;;;;;;;67.10;24.30;;;;;;;0.29;96.99;99284.73;214089;1287;22647;-75
2022/12/03 17:53:45;;;;;;;58.70;22.40;;;;;;;0.36;96.98;99280.09;214100;1287;22648;-74
2022/12/03 17:58:47;;;;;;;62.30;22.50;;;;;;;0.36;96.75;99278.09;214202;1279;24424;-75
2022/12/03 18:03:49;;;;;;;62.70;22.80;;;;;;;0.36;96.68;99275.23;214192;1285;22465;-75
2022/12/03 18:08:51;;;;;;;64.90;24.00;;;;;;;0.30;96.55;99271.02;214125;1287;25590;-74
2022/12/03 18:13:53;;;;;;;63.20;23.70;;;;;;;0.29;96.74;99265.30;214323;1284;24560;-76
2022/12/03 18:18:55;;;;;;;57.90;21.60;;;;;;;0.35;97.00;99262.23;214172;1285;23111;-75
2022/12/03 18:24:01;;;;;;;53.30;21.30;;;;;;;0.40;96.92;99259.15;214172;1284;22500;-75
2022/12/03 18:29:03;;;;;;;54.00;20.90;;;;;;;0.42;96.98;99258.27;214322;1285;22531;-77
2022/12/03 18:34:04;;;;;;;53.90;20.30;;;;;;;0.45;96.91;99252.75;214268;1289;25481;-76
2022/12/03 18:39:17;;;;;;;58.70;22.70;;;;;;;0.45;96.66;99258.23;214383;1284;25436;-75
2022/12/03 18:44:19;;;;;;;73.30;24.30;;;;;;;0.48;96.91;99256.09;214283;1284;22534;-76
2022/12/03 18:49:21;;;;;;;61.30;22.20;;;;;;;0.45;96.54;99255.75;214124;1292;22520;-74
2022/12/03 18:54:23;;;;;;;66.10;23.20;;;;;;;0.44;96.71;99251.33;214346;1289;24243;-75
2022/12/03 18:59:25;;;;;;;61.40;21.70;;;;;;;0.48;96.93;99248.35;214353;1284;22457;-73
2022/12/03 19:04:26;;;;;;;62.80;22.90;;;;;;;0.44;96.68;99247.89;214323;1281;25258;-74
2022/12/03 19:09:28;;;;;;;61.60;21.80;;;;;;;0.47;96.99;99250.14;214386;1284;23763;-74
2022/12/03 19:14:32;;;;;;;61.70;23.40;;;;;;;0.49;96.84;99257.59;214318;1280;25775;-74
2022/12/03 19:19:35;;;;;;;69.60;26.00;;;;;;;0.49;97.07;99257.92;214481;1284;24270;-73
2022/12/03 19:24:36;;;;;;;54.80;22.60;;;;;;;0.55;97.16;99258.19;214161;1288;24281;-73
2022/12/03 19:29:38;;;;;;;63.40;25.00;;;;;;;0.51;96.76;99266.38;214288;1288;25351;-74
2022/12/03 19:34:40;;;;;;;60.70;24.50;;;;;;;0.44;96.81;99255.71;214237;1284;22491;-74
2022/12/03 19:39:42;;;;;;;65.10;25.70;;;;;;;0.35;96.78;99254.50;214135;1284;22468;-74
2022/12/03 19:44:44;;;;;;;73.00;27.10;;;;;;;0.28;97.02;99251.98;214314;1281;26689;-75
2022/12/03 19:49:46;;;;;;;53.20;21.80;;;;;;;0.24;97.22;99253.54;214206;1288;25373;-76
2022/12/03 19:54:48;;;;;;;62.40;24.60;;;;;;;0.21;97.09;99251.72;214219;1285;24136;-76
2022/12/03 19:59:49;;;;;;;59.20;24.10;;;;;;;0.18;97.11;99253.02;214336;1284;22501;-73
2022/12/03 20:04:51;;;;;;;59.70;23.10;;;;;;;0.18;97.22;99255.25;214254;1289;22485;-74
2022/12/03 20:09:53;;;;;;;62.50;24.50;;;;;;;0.21;97.28;99257.84;214502;1281;22514;-74
2022/12/03 20:14:55;;;;;;;61.20;23.50;;;;;;;0.24;97.66;99259.45;214155;1281;22978;-73
2022/12/03 20:19:57;;;;;;;65.70;26.40;;;;;;;0.26;97.55;99269.66;214230;1284;25179;-73
2022/12/03 20:24:59;;;;;;;67.20;26.40;;;;;;;0.27;97.50;99270.59;214314;1284;23495;-73
2022/12/03 20:30:01;;;;;;;74.20;26.70;;;;;;;0.28;97.70;99272.94;214180;1285;25501;-76
2022/12/03 20:35:03;;;;;;;61.90;24.00;;;;;;;0.27;97.51;99268.77;214315;1290;22481;-76
2022/12/03 20:40:06;;;;;;;62.20;25.00;;;;;;;0.26;97.55;99261.15;214043;1285;25276;-76
2022/12/03 20:45:09;;;;;;;63.70;24.50;;;;;;;0.28;97.79;99264.73;214396;1287;23711;-75
2022/12/03 20:50:10;;;;;;;50.30;20.10;;;;;;;0.30;97.71;99258.13;214595;1281;25413;-77
2022/12/03 20:55:13;;;;;;;46.70;20.90;;;;;;;0.33;97.92;99263.59;214199;1289;25342;-79
2022/12/03 21:00:15;;;;;;;64.10;25.70;;;;;;;0.40;98.33;99264.94;214218;1287;25622;-77
2022/12/03 21:05:17;;;;;;;64.30;26.60;;;;;;;0.49;98.15;99260.48;214255;1288;22480;-75
2022/12/03 21:10:34;;;;;;;69.80;28.10;;;;;;;0.56;98.19;99260.90;214486;1285;23235;-74
2022/12/03 21:15:36;;;;;;;67.50;27.50;;;;;;;0.63;98.20;99259.77;214149;1288;25297;-75
2022/12/03 21:20:43;;;;;;;64.60;25.80;;;;;;;0.72;98.46;99250.73;214320;1284;23546;-76
2022/12/03 21:25:45;;;;;;;73.60;26.30;;;;;;;0.75;97.98;99241.20;214483;1289;24377;-75
2022/12/03 21:30:47;;;;;;;55.70;24.70;;;;;;;0.71;97.72;99240.52;214276;1288;24327;-75
2022/12/03 21:35:49;;;;;;;53.20;21.50;;;;;;;0.69;98.05;99246.55;214150;1284;23402;-74
2022/12/03 21:40:51;;;;;;;62.70;24.60;;;;;;;0.73;98.28;99240.71;214135;1284;25266;-76
2022/12/03 21:45:54;;;;;;;55.50;24.50;;;;;;;0.77;98.50;99236.27;214381;1288;24367;-74
2022/12/03 21:51:16;;;;;;;67.50;27.30;;;;;;;0.85;98.55;99234.89;213982;1284;22548;-74
2022/12/03 21:56:18;;;;;;;70.80;28.90;;;;;;;0.90;98.47;99228.20;214344;1287;22597;-74
2022/12/03 22:01:22;;;;;;;72.90;27.60;;;;;;;0.91;98.41;99223.19;214056;1289;25431;-74
2022/12/03 22:06:25;;;;;;;65.10;27.00;;;;;;;0.92;98.37;99217.54;214165;1282;24279;-75
2022/12/03 22:11:27;;;;;;;64.00;26.40;;;;;;;0.91;98.17;99215.86;214183;1288;22577;-73
2022/12/03 22:16:29;;;;;;;66.10;25.80;;;;;;;0.88;98.21;99225.72;214264;1287;22481;-74
2022/12/03 22:21:31;;;;;;;57.80;24.10;;;;;;;0.88;98.31;99226.45;214088;1287;24326;-74
2022/12/03 22:26:33;;;;;;;58.60;22.20;;;;;;;0.87;98.30;99223.02;214062;1284;24603;-74
2022/12/03 22:31:37;;;;;;;55.50;22.10;;;;;;;0.86;98.43;99221.55;214390;1284;23324;-77
2022/12/03 22:36:39;;;;;;;65.80;23.70;;;;;;;0.90;98.55;99212.52;214250;1284;24332;-76
2022/12/03 22:41:41;;;;;;;63.00;23.40;;;;;;;0.89;98.50;99209.63;214114;1284;91353;-76
2022/12/03 22:46:42;;;;;;;63.80;23.70;;;;;;;0.89;98.75;99207.58;214250;1278;22516;-75
2022/12/03 22:51:46;;;;;;;63.90;23.10;;;;;;;0.89;98.56;99211.00;214395;1294;22471;-74
2022/12/03 22:56:48;;;;;;;63.40;23.00;;;;;;;0.90;98.74;99207.04;214516;1284;22787;-74
2022/12/03 23:01:49;;;;;;;60.40;22.20;;;;;;;0.94;98.82;99202.23;214521;1284;22943;-77
2022/12/03 23:06:51;;;;;;;57.60;22.70;;;;;;;0.92;98.66;99204.04;214244;1287;22600;-82
2022/12/03 23:11:53;;;;;;;58.30;23.20;;;;;;;0.89;98.70;99200.80;214251;1282;22469;-76
2022/12/03 23:16:55;;;;;;;54.40;23.50;;;;;;;0.87;98.70;99197.65;214404;1284;22545;-76
2022/12/03 23:21:57;;;;;;;67.30;25.70;;;;;;;0.82;98.57;99193.42;214135;1310;24732;-78
2022/12/03 23:26:59;;;;;;;60.90;24.60;;;;;;;0.80;98.81;99199.89;214031;1310;22565;-76
2022/12/03 23:32:01;;;;;;;58.30;23.40;;;;;;;0.78;98.91;99203.10;214228;1310;22500;-75